sensor_id;sensor_type;location;lat;lon;timestamp;P1;durP1;ratioP1;P2;durP2;ratioP2
17790;SDS011;9019;48.132;-1.210;2023-05-28T00:00:48;19.87;;;8.83;;
17790;SDS011;9019;48.132;-1.210;2023-05-28T00:03:16;22.30;;;9.47;;
17790;SDS011;9019;48.132;-1.210;2023-05-28T00:05:43;18.87;;;9.83;;
17790;SDS011;9019;48.132;-1.210;2023-05-28T00:08:11;22.43;;;9.77;;
17790;SDS011;9019;48.132;-1.210;2023-05-28T00:10:39;21.80;;;9.97;;
17790;SDS011;9019;48.132;-1.210;2023-05-28T00:13:06;20.30;;;9.23;;
17790;SDS011;9019;48.132;-1.210;2023-05-28T00:15:33;22.33;;;9.70;;
17790;SDS011;9019;48.132;-1.210;2023-05-28T00:18:03;21.33;;;9.37;;
17790;SDS011;9019;48.132;-1.210;2023-05-28T00:20:30;23.13;;;9.83;;
17790;SDS011;9019;48.132;-1.210;2023-05-28T00:22:57;24.13;;;9.67;;
17790;SDS011;9019;48.132;-1.210;2023-05-28T00:25:25;27.03;;;10.03;;
17790;SDS011;9019;48.132;-1.210;2023-05-28T00:27:52;22.50;;;9.53;;
17790;SDS011;9019;48.132;-1.210;2023-05-28T00:30:19;29.00;;;10.37;;
17790;SDS011;9019;48.132;-1.210;2023-05-28T00:32:48;21.73;;;10.47;;
17790;SDS011;9019;48.132;-1.210;2023-05-28T00:35:17;21.03;;;10.07;;
17790;SDS011;9019;48.132;-1.210;2023-05-28T00:37:44;23.17;;;9.90;;
17790;SDS011;9019;48.132;-1.210;2023-05-28T00:40:11;24.57;;;9.33;;
17790;SDS011;9019;48.132;-1.210;2023-05-28T00:42:41;22.77;;;9.67;;
17790;SDS011;9019;48.132;-1.210;2023-05-28T00:45:08;24.03;;;10.13;;
17790;SDS011;9019;48.132;-1.210;2023-05-28T00:47:36;19.23;;;9.63;;
17790;SDS011;9019;48.132;-1.210;2023-05-28T00:50:05;20.87;;;10.57;;
17790;SDS011;9019;48.132;-1.210;2023-05-28T00:52:34;26.80;;;9.50;;
17790;SDS011;9019;48.132;-1.210;2023-05-28T00:55:01;22.30;;;9.87;;
17790;SDS011;9019;48.132;-1.210;2023-05-28T00:57:29;23.37;;;10.50;;
17790;SDS011;9019;48.132;-1.210;2023-05-28T00:59:56;22.87;;;9.97;;
17790;SDS011;9019;48.132;-1.210;2023-05-28T01:02:29;19.43;;;9.40;;
17790;SDS011;9019;48.132;-1.210;2023-05-28T01:04:56;22.10;;;9.53;;
17790;SDS011;9019;48.132;-1.210;2023-05-28T01:07:23;24.17;;;9.80;;
17790;SDS011;9019;48.132;-1.210;2023-05-28T01:09:52;22.73;;;10.40;;
17790;SDS011;9019;48.132;-1.210;2023-05-28T01:12:20;20.67;;;9.13;;
17790;SDS011;9019;48.132;-1.210;2023-05-28T01:14:48;22.63;;;9.90;;
17790;SDS011;9019;48.132;-1.210;2023-05-28T01:17:15;25.53;;;10.73;;
17790;SDS011;9019;48.132;-1.210;2023-05-28T01:19:43;26.10;;;9.87;;
17790;SDS011;9019;48.132;-1.210;2023-05-28T01:22:13;19.90;;;10.10;;
17790;SDS011;9019;48.132;-1.210;2023-05-28T01:24:43;22.57;;;10.13;;
17790;SDS011;9019;48.132;-1.210;2023-05-28T01:27:11;24.67;;;10.07;;
17790;SDS011;9019;48.132;-1.210;2023-05-28T01:29:39;21.57;;;9.20;;
17790;SDS011;9019;48.132;-1.210;2023-05-28T01:32:06;22.17;;;9.70;;
17790;SDS011;9019;48.132;-1.210;2023-05-28T01:34:33;22.47;;;9.97;;
17790;SDS011;9019;48.132;-1.210;2023-05-28T01:37:01;27.93;;;10.23;;
17790;SDS011;9019;48.132;-1.210;2023-05-28T01:39:32;22.63;;;10.63;;
17790;SDS011;9019;48.132;-1.210;2023-05-28T01:42:03;20.33;;;9.27;;
17790;SDS011;9019;48.132;-1.210;2023-05-28T01:44:32;23.67;;;10.27;;
17790;SDS011;9019;48.132;-1.210;2023-05-28T01:46:59;24.07;;;10.27;;
17790;SDS011;9019;48.132;-1.210;2023-05-28T01:49:26;20.23;;;10.73;;
17790;SDS011;9019;48.132;-1.210;2023-05-28T01:51:55;23.07;;;10.03;;
17790;SDS011;9019;48.132;-1.210;2023-05-28T01:54:22;25.33;;;10.03;;
17790;SDS011;9019;48.132;-1.210;2023-05-28T01:56:49;23.33;;;9.70;;
17790;SDS011;9019;48.132;-1.210;2023-05-28T01:59:18;26.83;;;10.80;;
17790;SDS011;9019;48.132;-1.210;2023-05-28T02:01:45;21.67;;;9.90;;
17790;SDS011;9019;48.132;-1.210;2023-05-28T02:04:12;26.13;;;10.20;;
17790;SDS011;9019;48.132;-1.210;2023-05-28T02:06:39;23.20;;;10.43;;
17790;SDS011;9019;48.132;-1.210;2023-05-28T02:09:09;23.33;;;10.03;;
17790;SDS011;9019;48.132;-1.210;2023-05-28T02:11:36;26.00;;;9.73;;
17790;SDS011;9019;48.132;-1.210;2023-05-28T02:14:03;22.67;;;9.53;;
17790;SDS011;9019;48.132;-1.210;2023-05-28T02:16:32;29.63;;;10.70;;
17790;SDS011;9019;48.132;-1.210;2023-05-28T02:19:00;22.23;;;9.73;;
17790;SDS011;9019;48.132;-1.210;2023-05-28T02:21:28;22.13;;;10.10;;
17790;SDS011;9019;48.132;-1.210;2023-05-28T02:23:55;23.87;;;10.50;;
17790;SDS011;9019;48.132;-1.210;2023-05-28T02:26:22;20.33;;;9.83;;
17790;SDS011;9019;48.132;-1.210;2023-05-28T02:28:50;22.53;;;9.97;;
17790;SDS011;9019;48.132;-1.210;2023-05-28T02:31:17;25.87;;;10.23;;
17790;SDS011;9019;48.132;-1.210;2023-05-28T02:33:46;20.87;;;10.50;;
17790;SDS011;9019;48.132;-1.210;2023-05-28T02:36:13;23.53;;;9.97;;
17790;SDS011;9019;48.132;-1.210;2023-05-28T02:38:41;25.23;;;10.33;;
17790;SDS011;9019;48.132;-1.210;2023-05-28T02:41:08;22.87;;;10.07;;
17790;SDS011;9019;48.132;-1.210;2023-05-28T02:43:36;24.50;;;10.13;;
17790;SDS011;9019;48.132;-1.210;2023-05-28T02:46:04;20.00;;;9.70;;
17790;SDS011;9019;48.132;-1.210;2023-05-28T02:48:31;23.53;;;10.20;;
17790;SDS011;9019;48.132;-1.210;2023-05-28T02:50:59;22.53;;;9.93;;
17790;SDS011;9019;48.132;-1.210;2023-05-28T02:53:28;28.67;;;10.40;;
17790;SDS011;9019;48.132;-1.210;2023-05-28T02:55:56;22.30;;;10.10;;
17790;SDS011;9019;48.132;-1.210;2023-05-28T02:58:23;22.00;;;9.67;;
17790;SDS011;9019;48.132;-1.210;2023-05-28T03:00:51;25.87;;;10.37;;
17790;SDS011;9019;48.132;-1.210;2023-05-28T03:03:18;25.37;;;10.30;;
17790;SDS011;9019;48.132;-1.210;2023-05-28T03:05:45;23.47;;;10.03;;
17790;SDS011;9019;48.132;-1.210;2023-05-28T03:08:14;23.17;;;10.33;;
17790;SDS011;9019;48.132;-1.210;2023-05-28T03:10:41;24.43;;;10.30;;
17790;SDS011;9019;48.132;-1.210;2023-05-28T03:13:09;23.73;;;9.70;;
17790;SDS011;9019;48.132;-1.210;2023-05-28T03:15:36;26.20;;;11.10;;
17790;SDS011;9019;48.132;-1.210;2023-05-28T03:18:03;22.47;;;10.53;;
17790;SDS011;9019;48.132;-1.210;2023-05-28T03:20:31;23.73;;;10.73;;
17790;SDS011;9019;48.132;-1.210;2023-05-28T03:22:58;24.43;;;10.83;;
17790;SDS011;9019;48.132;-1.210;2023-05-28T03:25:27;19.27;;;10.20;;
17790;SDS011;9019;48.132;-1.210;2023-05-28T03:27:54;25.40;;;10.20;;
17790;SDS011;9019;48.132;-1.210;2023-05-28T03:30:21;26.53;;;10.53;;
17790;SDS011;9019;48.132;-1.210;2023-05-28T03:32:49;24.93;;;10.97;;
17790;SDS011;9019;48.132;-1.210;2023-05-28T03:35:16;25.80;;;11.43;;
17790;SDS011;9019;48.132;-1.210;2023-05-28T03:37:43;22.27;;;10.77;;
17790;SDS011;9019;48.132;-1.210;2023-05-28T03:40:11;22.50;;;10.27;;
17790;SDS011;9019;48.132;-1.210;2023-05-28T03:42:39;25.67;;;10.97;;
17790;SDS011;9019;48.132;-1.210;2023-05-28T03:45:07;23.23;;;10.27;;
17790;SDS011;9019;48.132;-1.210;2023-05-28T03:47:34;24.50;;;10.37;;
17790;SDS011;9019;48.132;-1.210;2023-05-28T03:50:02;21.57;;;9.90;;
17790;SDS011;9019;48.132;-1.210;2023-05-28T03:52:30;23.57;;;10.27;;
17790;SDS011;9019;48.132;-1.210;2023-05-28T03:54:57;24.10;;;11.40;;
17790;SDS011;9019;48.132;-1.210;2023-05-28T03:57:25;24.60;;;10.10;;
17790;SDS011;9019;48.132;-1.210;2023-05-28T03:59:54;23.57;;;10.30;;
17790;SDS011;9019;48.132;-1.210;2023-05-28T04:02:22;22.73;;;10.30;;
17790;SDS011;9019;48.132;-1.210;2023-05-28T04:04:50;24.90;;;10.87;;
17790;SDS011;9019;48.132;-1.210;2023-05-28T04:07:17;21.20;;;10.40;;
17790;SDS011;9019;48.132;-1.210;2023-05-28T04:09:45;22.13;;;10.10;;
17790;SDS011;9019;48.132;-1.210;2023-05-28T04:12:12;24.93;;;10.77;;
17790;SDS011;9019;48.132;-1.210;2023-05-28T04:14:39;21.80;;;10.07;;
17790;SDS011;9019;48.132;-1.210;2023-05-28T04:17:08;25.23;;;10.87;;
17790;SDS011;9019;48.132;-1.210;2023-05-28T04:19:37;21.03;;;10.97;;
17790;SDS011;9019;48.132;-1.210;2023-05-28T04:22:06;27.57;;;10.93;;
17790;SDS011;9019;48.132;-1.210;2023-05-28T04:24:34;25.77;;;11.50;;
17790;SDS011;9019;48.132;-1.210;2023-05-28T04:27:01;26.73;;;10.97;;
17790;SDS011;9019;48.132;-1.210;2023-05-28T04:29:28;23.23;;;10.90;;
17790;SDS011;9019;48.132;-1.210;2023-05-28T04:31:56;25.07;;;11.20;;
17790;SDS011;9019;48.132;-1.210;2023-05-28T04:34:24;24.00;;;10.97;;
17790;SDS011;9019;48.132;-1.210;2023-05-28T04:36:52;22.57;;;10.80;;
17790;SDS011;9019;48.132;-1.210;2023-05-28T04:39:21;25.37;;;11.27;;
17790;SDS011;9019;48.132;-1.210;2023-05-28T04:41:49;24.77;;;11.93;;
17790;SDS011;9019;48.132;-1.210;2023-05-28T04:44:18;24.50;;;11.40;;
17790;SDS011;9019;48.132;-1.210;2023-05-28T04:46:46;23.80;;;10.83;;
17790;SDS011;9019;48.132;-1.210;2023-05-28T04:49:13;23.77;;;10.77;;
17790;SDS011;9019;48.132;-1.210;2023-05-28T04:51:42;23.97;;;11.73;;
17790;SDS011;9019;48.132;-1.210;2023-05-28T04:54:09;22.27;;;10.77;;
17790;SDS011;9019;48.132;-1.210;2023-05-28T04:56:36;26.87;;;11.30;;
17790;SDS011;9019;48.132;-1.210;2023-05-28T04:59:03;26.17;;;10.83;;
17790;SDS011;9019;48.132;-1.210;2023-05-28T05:01:34;23.03;;;10.60;;
17790;SDS011;9019;48.132;-1.210;2023-05-28T05:04:01;27.87;;;11.37;;
17790;SDS011;9019;48.132;-1.210;2023-05-28T05:06:28;24.83;;;10.40;;
17790;SDS011;9019;48.132;-1.210;2023-05-28T05:08:57;26.67;;;11.27;;
17790;SDS011;9019;48.132;-1.210;2023-05-28T05:11:25;22.90;;;10.57;;
17790;SDS011;9019;48.132;-1.210;2023-05-28T05:13:52;20.83;;;10.30;;
17790;SDS011;9019;48.132;-1.210;2023-05-28T05:16:19;22.80;;;10.70;;
17790;SDS011;9019;48.132;-1.210;2023-05-28T05:18:47;26.83;;;10.97;;
17790;SDS011;9019;48.132;-1.210;2023-05-28T05:21:14;18.63;;;10.10;;
17790;SDS011;9019;48.132;-1.210;2023-05-28T05:23:42;25.70;;;10.80;;
17790;SDS011;9019;48.132;-1.210;2023-05-28T05:26:11;22.67;;;10.70;;
17790;SDS011;9019;48.132;-1.210;2023-05-28T05:28:40;21.90;;;10.00;;
17790;SDS011;9019;48.132;-1.210;2023-05-28T05:31:07;24.53;;;10.97;;
17790;SDS011;9019;48.132;-1.210;2023-05-28T05:33:37;23.17;;;10.20;;
17790;SDS011;9019;48.132;-1.210;2023-05-28T05:36:04;19.90;;;9.33;;
17790;SDS011;9019;48.132;-1.210;2023-05-28T05:38:31;19.33;;;9.77;;
17790;SDS011;9019;48.132;-1.210;2023-05-28T05:41:00;25.33;;;10.00;;
17790;SDS011;9019;48.132;-1.210;2023-05-28T05:43:29;18.97;;;9.03;;
17790;SDS011;9019;48.132;-1.210;2023-05-28T05:45:56;14.90;;;8.77;;
17790;SDS011;9019;48.132;-1.210;2023-05-28T05:48:25;24.83;;;9.37;;
17790;SDS011;9019;48.132;-1.210;2023-05-28T05:50:53;15.60;;;8.87;;
17790;SDS011;9019;48.132;-1.210;2023-05-28T05:53:20;15.73;;;8.13;;
17790;SDS011;9019;48.132;-1.210;2023-05-28T05:55:48;16.90;;;8.93;;
17790;SDS011;9019;48.132;-1.210;2023-05-28T05:58:15;16.67;;;8.93;;
17790;SDS011;9019;48.132;-1.210;2023-05-28T06:00:44;20.95;;;8.65;;
17790;SDS011;9019;48.132;-1.210;2023-05-28T06:03:12;22.02;;;9.65;;
17790;SDS011;9019;48.132;-1.210;2023-05-28T06:05:40;17.08;;;8.27;;
17790;SDS011;9019;48.132;-1.210;2023-05-28T06:08:07;21.23;;;8.55;;
17790;SDS011;9019;48.132;-1.210;2023-05-28T06:10:34;19.33;;;8.43;;
17790;SDS011;9019;48.132;-1.210;2023-05-28T06:13:02;17.23;;;8.40;;
17790;SDS011;9019;48.132;-1.210;2023-05-28T06:15:29;18.35;;;8.50;;
17790;SDS011;9019;48.132;-1.210;2023-05-28T06:17:58;14.57;;;8.07;;
17790;SDS011;9019;48.132;-1.210;2023-05-28T06:20:26;14.07;;;7.78;;
17790;SDS011;9019;48.132;-1.210;2023-05-28T06:22:53;19.30;;;8.13;;
17790;SDS011;9019;48.132;-1.210;2023-05-28T06:25:21;16.13;;;8.40;;
17790;SDS011;9019;48.132;-1.210;2023-05-28T06:27:48;15.38;;;7.70;;
17790;SDS011;9019;48.132;-1.210;2023-05-28T06:30:16;17.15;;;7.95;;
17790;SDS011;9019;48.132;-1.210;2023-05-28T06:32:43;15.32;;;7.57;;
17790;SDS011;9019;48.132;-1.210;2023-05-28T06:35:12;18.35;;;7.90;;
17790;SDS011;9019;48.132;-1.210;2023-05-28T06:37:39;15.77;;;8.00;;
17790;SDS011;9019;48.132;-1.210;2023-05-28T06:40:07;18.02;;;7.93;;
17790;SDS011;9019;48.132;-1.210;2023-05-28T06:42:35;17.50;;;8.13;;
17790;SDS011;9019;48.132;-1.210;2023-05-28T06:45:03;18.25;;;8.57;;
17790;SDS011;9019;48.132;-1.210;2023-05-28T06:47:30;17.55;;;7.82;;
17790;SDS011;9019;48.132;-1.210;2023-05-28T06:49:58;17.45;;;8.25;;
17790;SDS011;9019;48.132;-1.210;2023-05-28T06:52:26;17.20;;;8.10;;
17790;SDS011;9019;48.132;-1.210;2023-05-28T06:54:54;19.50;;;8.07;;
17790;SDS011;9019;48.132;-1.210;2023-05-28T06:57:21;15.60;;;7.68;;
17790;SDS011;9019;48.132;-1.210;2023-05-28T06:59:49;14.88;;;7.47;;
17790;SDS011;9019;48.132;-1.210;2023-05-28T07:02:16;15.85;;;7.85;;
17790;SDS011;9019;48.132;-1.210;2023-05-28T07:04:43;12.23;;;7.32;;
17790;SDS011;9019;48.132;-1.210;2023-05-28T07:07:10;19.95;;;7.85;;
17790;SDS011;9019;48.132;-1.210;2023-05-28T07:09:39;15.25;;;7.70;;
17790;SDS011;9019;48.132;-1.210;2023-05-28T07:12:06;15.07;;;8.23;;
17790;SDS011;9019;48.132;-1.210;2023-05-28T07:14:33;13.93;;;7.32;;
17790;SDS011;9019;48.132;-1.210;2023-05-28T07:17:00;14.98;;;8.38;;
17790;SDS011;9019;48.132;-1.210;2023-05-28T07:19:28;14.13;;;7.07;;
17790;SDS011;9019;48.132;-1.210;2023-05-28T07:21:56;11.82;;;6.60;;
17790;SDS011;9019;48.132;-1.210;2023-05-28T07:24:23;13.20;;;7.20;;
17790;SDS011;9019;48.132;-1.210;2023-05-28T07:26:51;14.25;;;7.72;;
17790;SDS011;9019;48.132;-1.210;2023-05-28T07:29:19;16.40;;;8.02;;
17790;SDS011;9019;48.132;-1.210;2023-05-28T07:31:46;14.57;;;7.72;;
17790;SDS011;9019;48.132;-1.210;2023-05-28T07:34:13;16.58;;;7.93;;
17790;SDS011;9019;48.132;-1.210;2023-05-28T07:36:40;12.43;;;7.43;;
17790;SDS011;9019;48.132;-1.210;2023-05-28T07:39:07;13.70;;;7.35;;
17790;SDS011;9019;48.132;-1.210;2023-05-28T07:41:35;13.52;;;7.47;;
17790;SDS011;9019;48.132;-1.210;2023-05-28T07:44:04;14.63;;;7.53;;
17790;SDS011;9019;48.132;-1.210;2023-05-28T07:46:32;15.18;;;7.07;;
17790;SDS011;9019;48.132;-1.210;2023-05-28T07:48:59;12.93;;;7.32;;
17790;SDS011;9019;48.132;-1.210;2023-05-28T07:51:27;15.60;;;7.40;;
17790;SDS011;9019;48.132;-1.210;2023-05-28T07:53:54;13.70;;;7.15;;
17790;SDS011;9019;48.132;-1.210;2023-05-28T07:56:22;11.18;;;6.93;;
17790;SDS011;9019;48.132;-1.210;2023-05-28T07:58:49;16.05;;;7.32;;
17790;SDS011;9019;48.132;-1.210;2023-05-28T08:01:18;14.98;;;7.03;;
17790;SDS011;9019;48.132;-1.210;2023-05-28T08:03:45;12.05;;;6.60;;
17790;SDS011;9019;48.132;-1.210;2023-05-28T08:06:16;15.52;;;6.93;;
17790;SDS011;9019;48.132;-1.210;2023-05-28T08:08:43;12.10;;;6.28;;
17790;SDS011;9019;48.132;-1.210;2023-05-28T08:11:10;12.25;;;6.18;;
17790;SDS011;9019;48.132;-1.210;2023-05-28T08:13:38;11.77;;;6.50;;
17790;SDS011;9019;48.132;-1.210;2023-05-28T08:16:06;14.48;;;6.50;;
17790;SDS011;9019;48.132;-1.210;2023-05-28T08:18:34;13.98;;;6.07;;
17790;SDS011;9019;48.132;-1.210;2023-05-28T08:21:03;12.70;;;5.70;;
17790;SDS011;9019;48.132;-1.210;2023-05-28T08:23:30;10.98;;;6.43;;
17790;SDS011;9019;48.132;-1.210;2023-05-28T08:25:59;12.98;;;6.28;;
17790;SDS011;9019;48.132;-1.210;2023-05-28T08:28:27;12.65;;;5.85;;
17790;SDS011;9019;48.132;-1.210;2023-05-28T08:30:55;9.20;;;5.70;;
17790;SDS011;9019;48.132;-1.210;2023-05-28T08:33:22;11.50;;;6.13;;
17790;SDS011;9019;48.132;-1.210;2023-05-28T08:35:51;10.82;;;5.60;;
17790;SDS011;9019;48.132;-1.210;2023-05-28T08:38:18;9.77;;;5.63;;
17790;SDS011;9019;48.132;-1.210;2023-05-28T08:40:48;10.75;;;5.50;;
17790;SDS011;9019;48.132;-1.210;2023-05-28T08:43:15;10.77;;;5.72;;
17790;SDS011;9019;48.132;-1.210;2023-05-28T08:45:43;14.05;;;6.00;;
17790;SDS011;9019;48.132;-1.210;2023-05-28T08:48:11;10.32;;;5.68;;
17790;SDS011;9019;48.132;-1.210;2023-05-28T08:50:40;10.73;;;5.40;;
17790;SDS011;9019;48.132;-1.210;2023-05-28T08:53:12;9.90;;;6.00;;
17790;SDS011;9019;48.132;-1.210;2023-05-28T08:55:41;8.50;;;5.20;;
17790;SDS011;9019;48.132;-1.210;2023-05-28T08:58:08;10.18;;;5.85;;
17790;SDS011;9019;48.132;-1.210;2023-05-28T09:00:36;11.88;;;6.00;;
17790;SDS011;9019;48.132;-1.210;2023-05-28T09:03:04;11.20;;;5.30;;
17790;SDS011;9019;48.132;-1.210;2023-05-28T09:05:33;8.63;;;5.40;;
17790;SDS011;9019;48.132;-1.210;2023-05-28T09:08:00;13.35;;;5.95;;
17790;SDS011;9019;48.132;-1.210;2023-05-28T09:10:28;11.82;;;6.40;;
17790;SDS011;9019;48.132;-1.210;2023-05-28T09:12:56;9.60;;;5.72;;
17790;SDS011;9019;48.132;-1.210;2023-05-28T09:15:24;12.15;;;5.60;;
17790;SDS011;9019;48.132;-1.210;2023-05-28T09:17:51;13.85;;;5.80;;
17790;SDS011;9019;48.132;-1.210;2023-05-28T09:20:18;9.77;;;5.88;;
17790;SDS011;9019;48.132;-1.210;2023-05-28T09:22:45;8.60;;;5.55;;
17790;SDS011;9019;48.132;-1.210;2023-05-28T09:25:13;8.98;;;5.45;;
17790;SDS011;9019;48.132;-1.210;2023-05-28T09:27:42;7.60;;;5.07;;
17790;SDS011;9019;48.132;-1.210;2023-05-28T09:30:11;10.82;;;5.68;;
17790;SDS011;9019;48.132;-1.210;2023-05-28T09:32:38;9.52;;;4.82;;
17790;SDS011;9019;48.132;-1.210;2023-05-28T09:35:06;8.25;;;5.22;;
17790;SDS011;9019;48.132;-1.210;2023-05-28T09:37:33;9.15;;;5.30;;
17790;SDS011;9019;48.132;-1.210;2023-05-28T09:40:01;9.43;;;5.78;;
17790;SDS011;9019;48.132;-1.210;2023-05-28T09:42:35;8.05;;;5.35;;
17790;SDS011;9019;48.132;-1.210;2023-05-28T09:45:08;9.90;;;5.25;;
17790;SDS011;9019;48.132;-1.210;2023-05-28T09:47:41;9.57;;;5.68;;
17790;SDS011;9019;48.132;-1.210;2023-05-28T09:50:08;8.68;;;5.05;;
17790;SDS011;9019;48.132;-1.210;2023-05-28T09:52:36;10.15;;;5.28;;
17790;SDS011;9019;48.132;-1.210;2023-05-28T09:55:06;7.05;;;5.13;;
17790;SDS011;9019;48.132;-1.210;2023-05-28T09:57:33;11.23;;;5.22;;
17790;SDS011;9019;48.132;-1.210;2023-05-28T10:00:03;10.80;;;5.30;;
17790;SDS011;9019;48.132;-1.210;2023-05-28T10:02:41;9.95;;;5.50;;
17790;SDS011;9019;48.132;-1.210;2023-05-28T10:05:10;9.50;;;5.53;;
17790;SDS011;9019;48.132;-1.210;2023-05-28T10:07:41;11.02;;;6.10;;
17790;SDS011;9019;48.132;-1.210;2023-05-28T10:10:10;11.82;;;6.03;;
17790;SDS011;9019;48.132;-1.210;2023-05-28T10:12:38;10.05;;;6.20;;
17790;SDS011;9019;48.132;-1.210;2023-05-28T10:15:06;9.90;;;5.70;;
17790;SDS011;9019;48.132;-1.210;2023-05-28T10:17:33;9.52;;;5.50;;
17790;SDS011;9019;48.132;-1.210;2023-05-28T10:20:03;10.25;;;5.40;;
17790;SDS011;9019;48.132;-1.210;2023-05-28T10:22:31;12.30;;;5.75;;
17790;SDS011;9019;48.132;-1.210;2023-05-28T10:24:58;8.70;;;5.70;;
17790;SDS011;9019;48.132;-1.210;2023-05-28T10:27:28;9.02;;;6.32;;
17790;SDS011;9019;48.132;-1.210;2023-05-28T10:29:56;8.77;;;5.55;;
17790;SDS011;9019;48.132;-1.210;2023-05-28T10:32:23;9.75;;;5.30;;
17790;SDS011;9019;48.132;-1.210;2023-05-28T10:34:58;13.68;;;5.97;;
17790;SDS011;9019;48.132;-1.210;2023-05-28T10:37:29;11.00;;;5.82;;
17790;SDS011;9019;48.132;-1.210;2023-05-28T10:39:56;11.45;;;5.68;;
17790;SDS011;9019;48.132;-1.210;2023-05-28T10:42:26;11.23;;;5.90;;
17790;SDS011;9019;48.132;-1.210;2023-05-28T10:45:05;10.32;;;6.00;;
17790;SDS011;9019;48.132;-1.210;2023-05-28T10:47:35;7.43;;;5.65;;
17790;SDS011;9019;48.132;-1.210;2023-05-28T10:50:12;9.95;;;5.60;;
17790;SDS011;9019;48.132;-1.210;2023-05-28T10:52:42;7.60;;;5.40;;
17790;SDS011;9019;48.132;-1.210;2023-05-28T10:55:09;9.10;;;5.90;;
17790;SDS011;9019;48.132;-1.210;2023-05-28T10:57:40;9.13;;;6.05;;
17790;SDS011;9019;48.132;-1.210;2023-05-28T11:00:08;9.35;;;6.22;;
17790;SDS011;9019;48.132;-1.210;2023-05-28T11:02:39;8.25;;;5.65;;
17790;SDS011;9019;48.132;-1.210;2023-05-28T11:05:07;9.65;;;6.28;;
17790;SDS011;9019;48.132;-1.210;2023-05-28T11:07:35;10.68;;;7.78;;
17790;SDS011;9019;48.132;-1.210;2023-05-28T11:10:04;11.55;;;6.43;;
17790;SDS011;9019;48.132;-1.210;2023-05-28T11:12:34;9.32;;;6.05;;
17790;SDS011;9019;48.132;-1.210;2023-05-28T11:15:02;9.77;;;5.68;;
17790;SDS011;9019;48.132;-1.210;2023-05-28T11:17:29;10.05;;;5.22;;
17790;SDS011;9019;48.132;-1.210;2023-05-28T11:19:56;10.00;;;5.80;;
17790;SDS011;9019;48.132;-1.210;2023-05-28T11:22:31;9.65;;;6.00;;
17790;SDS011;9019;48.132;-1.210;2023-05-28T11:25:02;8.73;;;5.40;;
17790;SDS011;9019;48.132;-1.210;2023-05-28T11:27:31;10.20;;;6.43;;
17790;SDS011;9019;48.132;-1.210;2023-05-28T11:30:00;9.40;;;5.80;;
17790;SDS011;9019;48.132;-1.210;2023-05-28T11:32:28;9.77;;;5.32;;
17790;SDS011;9019;48.132;-1.210;2023-05-28T11:34:58;8.60;;;5.40;;
17790;SDS011;9019;48.132;-1.210;2023-05-28T11:37:25;9.10;;;5.50;;
17790;SDS011;9019;48.132;-1.210;2023-05-28T11:39:53;8.82;;;5.50;;
17790;SDS011;9019;48.132;-1.210;2023-05-28T11:42:21;10.82;;;5.88;;
17790;SDS011;9019;48.132;-1.210;2023-05-28T11:44:50;9.05;;;5.95;;
17790;SDS011;9019;48.132;-1.210;2023-05-28T11:47:18;11.55;;;6.22;;
17790;SDS011;9019;48.132;-1.210;2023-05-28T11:49:45;9.23;;;5.90;;
17790;SDS011;9019;48.132;-1.210;2023-05-28T11:52:13;8.95;;;6.30;;
17790;SDS011;9019;48.132;-1.210;2023-05-28T11:54:40;12.00;;;7.10;;
17790;SDS011;9019;48.132;-1.210;2023-05-28T11:57:08;10.45;;;6.47;;
17790;SDS011;9019;48.132;-1.210;2023-05-28T11:59:35;10.55;;;6.20;;
17790;SDS011;9019;48.132;-1.210;2023-05-28T12:02:11;9.57;;;5.40;;
17790;SDS011;9019;48.132;-1.210;2023-05-28T12:04:39;8.10;;;5.45;;
17790;SDS011;9019;48.132;-1.210;2023-05-28T12:07:06;9.32;;;5.80;;
17790;SDS011;9019;48.132;-1.210;2023-05-28T12:09:33;9.70;;;5.75;;
17790;SDS011;9019;48.132;-1.210;2023-05-28T12:12:04;10.80;;;5.95;;
17790;SDS011;9019;48.132;-1.210;2023-05-28T12:14:31;9.25;;;6.13;;
17790;SDS011;9019;48.132;-1.210;2023-05-28T12:17:06;9.63;;;5.95;;
17790;SDS011;9019;48.132;-1.210;2023-05-28T12:19:35;8.32;;;5.45;;
17790;SDS011;9019;48.132;-1.210;2023-05-28T12:22:04;9.27;;;5.60;;
17790;SDS011;9019;48.132;-1.210;2023-05-28T12:24:32;8.75;;;5.40;;
17790;SDS011;9019;48.132;-1.210;2023-05-28T12:26:59;10.00;;;6.15;;
17790;SDS011;9019;48.132;-1.210;2023-05-28T12:29:26;10.45;;;6.03;;
17790;SDS011;9019;48.132;-1.210;2023-05-28T12:31:57;9.75;;;6.55;;
17790;SDS011;9019;48.132;-1.210;2023-05-28T12:34:24;12.05;;;6.20;;
17790;SDS011;9019;48.132;-1.210;2023-05-28T12:36:53;9.63;;;5.85;;
17790;SDS011;9019;48.132;-1.210;2023-05-28T12:39:21;10.63;;;6.18;;
17790;SDS011;9019;48.132;-1.210;2023-05-28T12:41:48;9.55;;;5.97;;
17790;SDS011;9019;48.132;-1.210;2023-05-28T12:44:15;9.40;;;6.32;;
17790;SDS011;9019;48.132;-1.210;2023-05-28T12:46:42;9.00;;;5.93;;
17790;SDS011;9019;48.132;-1.210;2023-05-28T12:49:09;9.32;;;6.15;;
17790;SDS011;9019;48.132;-1.210;2023-05-28T12:51:37;8.70;;;5.47;;
17790;SDS011;9019;48.132;-1.210;2023-05-28T12:54:06;7.63;;;5.78;;
17790;SDS011;9019;48.132;-1.210;2023-05-28T12:56:33;12.20;;;6.13;;
17790;SDS011;9019;48.132;-1.210;2023-05-28T12:59:00;9.35;;;5.90;;
17790;SDS011;9019;48.132;-1.210;2023-05-28T13:01:27;10.82;;;6.03;;
17790;SDS011;9019;48.132;-1.210;2023-05-28T13:03:54;10.27;;;5.78;;
17790;SDS011;9019;48.132;-1.210;2023-05-28T13:06:22;9.43;;;5.93;;
17790;SDS011;9019;48.132;-1.210;2023-05-28T13:08:49;7.75;;;5.40;;
17790;SDS011;9019;48.132;-1.210;2023-05-28T13:11:17;8.18;;;5.75;;
17790;SDS011;9019;48.132;-1.210;2023-05-28T13:13:45;8.73;;;5.70;;
17790;SDS011;9019;48.132;-1.210;2023-05-28T13:16:12;8.68;;;5.90;;
17790;SDS011;9019;48.132;-1.210;2023-05-28T13:18:39;9.13;;;5.35;;
17790;SDS011;9019;48.132;-1.210;2023-05-28T13:21:07;8.18;;;5.78;;
17790;SDS011;9019;48.132;-1.210;2023-05-28T13:23:35;8.35;;;5.72;;
17790;SDS011;9019;48.132;-1.210;2023-05-28T13:26:02;7.40;;;5.45;;
17790;SDS011;9019;48.132;-1.210;2023-05-28T13:28:31;6.95;;;5.18;;
17790;SDS011;9019;48.132;-1.210;2023-05-28T13:30:58;10.32;;;5.45;;
17790;SDS011;9019;48.132;-1.210;2023-05-28T13:33:25;9.75;;;6.18;;
17790;SDS011;9019;48.132;-1.210;2023-05-28T13:35:53;10.10;;;5.78;;
17790;SDS011;9019;48.132;-1.210;2023-05-28T13:38:20;8.57;;;5.85;;
17790;SDS011;9019;48.132;-1.210;2023-05-28T13:40:47;8.32;;;5.32;;
17790;SDS011;9019;48.132;-1.210;2023-05-28T13:43:14;9.07;;;5.30;;
17790;SDS011;9019;48.132;-1.210;2023-05-28T13:45:43;7.60;;;5.85;;
17790;SDS011;9019;48.132;-1.210;2023-05-28T13:48:10;7.45;;;5.03;;
17790;SDS011;9019;48.132;-1.210;2023-05-28T13:50:38;6.82;;;5.05;;
17790;SDS011;9019;48.132;-1.210;2023-05-28T13:53:05;7.93;;;5.68;;
17790;SDS011;9019;48.132;-1.210;2023-05-28T13:55:32;8.18;;;5.30;;
17790;SDS011;9019;48.132;-1.210;2023-05-28T13:57:59;7.40;;;5.68;;
17790;SDS011;9019;48.132;-1.210;2023-05-28T14:00:27;7.40;;;5.30;;
17790;SDS011;9019;48.132;-1.210;2023-05-28T14:02:55;7.97;;;5.45;;
17790;SDS011;9019;48.132;-1.210;2023-05-28T14:05:22;8.52;;;5.32;;
17790;SDS011;9019;48.132;-1.210;2023-05-28T14:07:50;7.85;;;5.43;;
17790;SDS011;9019;48.132;-1.210;2023-05-28T14:10:17;7.40;;;5.38;;
17790;SDS011;9019;48.132;-1.210;2023-05-28T14:12:46;8.52;;;5.45;;
17790;SDS011;9019;48.132;-1.210;2023-05-28T14:15:16;7.97;;;5.35;;
17790;SDS011;9019;48.132;-1.210;2023-05-28T14:17:43;8.20;;;5.43;;
17790;SDS011;9019;48.132;-1.210;2023-05-28T14:20:12;9.32;;;5.32;;
17790;SDS011;9019;48.132;-1.210;2023-05-28T14:22:39;7.55;;;5.50;;
17790;SDS011;9019;48.132;-1.210;2023-05-28T14:25:07;7.78;;;5.55;;
17790;SDS011;9019;48.132;-1.210;2023-05-28T14:27:35;10.23;;;5.90;;
17790;SDS011;9019;48.132;-1.210;2023-05-28T14:30:02;7.45;;;5.35;;
17790;SDS011;9019;48.132;-1.210;2023-05-28T14:32:30;7.38;;;5.40;;
17790;SDS011;9019;48.132;-1.210;2023-05-28T14:34:57;6.90;;;5.30;;
17790;SDS011;9019;48.132;-1.210;2023-05-28T14:37:26;10.43;;;5.78;;
17790;SDS011;9019;48.132;-1.210;2023-05-28T14:39:53;9.23;;;5.75;;